createdAt,value
2022-08-04T00:02:00.778Z,1.05
2022-08-04T00:04:33.642Z,1.10
2022-08-04T00:07:05.327Z,1.10
2022-08-04T00:09:47.539Z,1.17
2022-08-04T00:12:17.520Z,1.08
2022-08-04T00:14:49.049Z,1.25
2022-08-04T00:17:20.440Z,1.25
2022-08-04T00:19:49.298Z,1.10
2022-08-04T00:22:18.496Z,1.15
2022-08-04T00:24:45.912Z,1.00
2022-08-04T00:27:13.836Z,1.20
2022-08-04T00:29:41.111Z,1.30
2022-08-04T00:32:09.412Z,1.30
2022-08-04T00:34:37.182Z,0.95
2022-08-04T00:37:05.483Z,1.05
2022-08-04T00:39:33.228Z,0.90
2022-08-04T00:42:09.532Z,0.98
2022-08-04T00:44:36.722Z,0.90
2022-08-04T00:47:08.592Z,1.05
2022-08-04T00:49:38.854Z,1.00
2022-08-04T00:52:32.507Z,1.30
2022-08-04T00:55:27.321Z,0.98
2022-08-04T00:57:54.507Z,0.90
2022-08-04T01:00:22.991Z,1.00
2022-08-04T01:03:10.729Z,0.95
2022-08-04T01:05:38.177Z,0.93
2022-08-04T01:08:24.480Z,1.08
2022-08-04T01:11:04.354Z,1.10
2022-08-04T01:13:46.184Z,0.98
2022-08-04T01:16:16.875Z,1.00
2022-08-04T01:19:13.226Z,1.20
2022-08-04T01:21:49.526Z,1.27
2022-08-04T01:24:26.726Z,1.15
2022-08-04T01:27:00.065Z,1.30
2022-08-04T01:29:34.374Z,1.00
2022-08-04T01:32:11.368Z,1.02
2022-08-04T01:34:44.960Z,1.40
2022-08-04T01:37:16.625Z,0.95
2022-08-04T01:39:50.392Z,0.75
2022-08-04T01:42:18.807Z,1.25
2022-08-04T01:45:01.153Z,1.50
2022-08-04T01:47:30.150Z,1.00
2022-08-04T01:50:07.079Z,0.93
2022-08-04T01:52:36.188Z,1.42
2022-08-04T01:55:10.146Z,1.05
2022-08-04T01:57:59.367Z,1.38
2022-08-04T02:00:28.451Z,1.25
2022-08-04T02:02:56.984Z,1.58
2022-08-04T02:06:03.659Z,1.20
2022-08-04T02:08:27.861Z,1.42
2022-08-04T02:11:09.660Z,0.98
2022-08-04T02:13:44.647Z,1.10
2022-08-04T02:16:38.416Z,1.20
2022-08-04T02:19:14.843Z,1.17
2022-08-04T02:21:43.025Z,1.10
2022-08-04T02:24:15.505Z,0.90
2022-08-04T02:26:43.681Z,0.90
2022-08-04T02:29:16.716Z,0.80
2022-08-04T02:31:52.920Z,0.98
2022-08-04T02:34:26.020Z,1.00
2022-08-04T02:36:53.510Z,0.90
2022-08-04T02:39:21.605Z,0.85
2022-08-04T02:41:49.989Z,0.90
2022-08-04T02:44:24.121Z,1.15
2022-08-04T02:46:55.064Z,0.90
2022-08-04T02:49:23.062Z,1.45
2022-08-04T02:51:55.081Z,1.30
2022-08-04T02:54:32.708Z,1.00
2022-08-04T02:57:04.403Z,0.82
2022-08-04T02:59:56.083Z,0.90
2022-08-04T03:02:29.673Z,0.82
2022-08-04T03:05:07.699Z,0.90
2022-08-04T03:07:41.128Z,1.00
2022-08-04T03:10:18.340Z,0.95
2022-08-04T03:13:14.307Z,0.93
2022-08-04T03:15:59.995Z,1.00
2022-08-04T03:18:46.328Z,0.75
2022-08-04T03:23:53.024Z,0.82
2022-08-04T03:26:32.418Z,0.88
2022-08-04T03:29:05.470Z,0.77
2022-08-04T03:31:51.447Z,1.10
2022-08-04T03:34:26.822Z,1.10
2022-08-04T03:37:12.594Z,0.85
2022-08-04T03:39:55.258Z,0.93
2022-08-04T03:42:25.503Z,1.00
2022-08-04T03:45:04.942Z,0.90
2022-08-04T03:47:54.402Z,1.10
2022-08-04T03:50:36.199Z,1.00
2022-08-04T03:53:17.620Z,1.00
2022-08-04T03:55:47.994Z,0.95
2022-08-04T03:58:36.370Z,1.20
2022-08-04T04:01:06.342Z,1.10
2022-08-04T04:03:52.344Z,0.90
2022-08-04T04:06:35.407Z,1.02
2022-08-04T04:09:20.757Z,1.13
2022-08-04T04:11:57.102Z,1.00
2022-08-04T04:14:28.305Z,1.08
2022-08-04T04:17:11.358Z,0.80
2022-08-04T04:19:58.321Z,0.88
2022-08-04T04:22:26.000Z,0.82
2022-08-04T04:25:11.843Z,1.00
2022-08-04T04:27:50.738Z,0.75
2022-08-04T04:30:17.933Z,0.90
2022-08-04T04:33:03.973Z,0.90
2022-08-04T04:38:17.224Z,0.95
2022-08-04T04:41:02.962Z,0.80
2022-08-04T04:43:52.623Z,0.82
2022-08-04T04:46:26.132Z,1.00
2022-08-04T04:49:30.887Z,1.00
2022-08-04T04:52:17.999Z,0.90
2022-08-04T04:54:52.211Z,0.82
2022-08-04T04:57:19.665Z,0.77
2022-08-04T04:59:47.063Z,1.00
2022-08-04T05:02:23.177Z,0.55
2022-08-04T05:04:56.364Z,0.80
2022-08-04T05:07:43.335Z,1.00
2022-08-04T05:10:46.121Z,0.85
2022-08-04T05:14:34.419Z,0.93
2022-08-04T05:16:18.996Z,0.80
2022-08-04T05:18:51.769Z,0.90
2022-08-04T05:21:21.976Z,0.98
2022-08-04T05:23:53.105Z,0.85
2022-08-04T05:26:21.690Z,0.80
2022-08-04T05:28:56.852Z,0.63
2022-08-04T05:31:26.586Z,1.00
2022-08-04T05:34:04.451Z,1.05
2022-08-04T05:36:41.316Z,0.90
2022-08-04T05:39:13.370Z,1.00
2022-08-04T05:41:46.288Z,0.80
2022-08-04T05:44:23.941Z,1.00
2022-08-04T05:46:54.189Z,0.70
2022-08-04T05:49:23.483Z,1.00
2022-08-04T05:51:51.350Z,0.82
2022-08-04T05:54:19.244Z,0.93
2022-08-04T05:56:46.882Z,1.15
2022-08-04T05:59:14.704Z,1.20
2022-08-04T06:01:55.763Z,0.98
2022-08-04T06:04:38.320Z,1.05
2022-08-04T06:07:05.838Z,1.05
2022-08-04T06:09:33.631Z,1.30
2022-08-04T06:12:04.351Z,0.80
2022-08-04T06:14:43.577Z,0.93
2022-08-04T06:18:33.978Z,0.70
2022-08-04T06:20:18.063Z,1.10
2022-08-04T06:22:51.204Z,0.90
2022-08-04T06:25:21.724Z,1.17
2022-08-04T06:27:50.119Z,1.17
2022-08-04T06:30:20.094Z,0.98
2022-08-04T06:32:49.608Z,0.98
2022-08-04T06:35:18.129Z,1.40
2022-08-04T06:37:47.686Z,1.10
2022-08-04T06:40:31.569Z,1.23
2022-08-04T06:43:06.299Z,1.30
2022-08-04T06:45:35.739Z,1.50
2022-08-04T06:48:04.154Z,1.13
2022-08-04T06:51:24.571Z,1.05
2022-08-04T06:53:20.034Z,1.02
2022-08-04T06:55:47.920Z,0.88
2022-08-04T06:58:16.335Z,0.80
2022-08-04T07:00:45.709Z,1.20
2022-08-04T07:03:13.360Z,1.45
2022-08-04T07:05:41.051Z,1.08
2022-08-04T07:08:10.662Z,1.00
2022-08-04T07:10:37.696Z,1.20
2022-08-04T07:13:07.480Z,1.30
2022-08-04T07:15:36.238Z,1.08
2022-08-04T07:18:05.152Z,1.40
2022-08-04T07:20:36.599Z,1.83
2022-08-04T07:23:05.005Z,1.27
2022-08-04T07:26:00.794Z,1.60
2022-08-04T07:28:20.177Z,1.90
2022-08-04T07:30:48.491Z,1.20
2022-08-04T07:33:17.372Z,1.52
2022-08-04T07:36:10.729Z,1.48
2022-08-04T07:38:33.634Z,1.17
2022-08-04T07:41:35.338Z,1.73
2022-08-04T07:43:54.813Z,1.75
2022-08-04T07:46:22.262Z,1.75
2022-08-04T07:48:49.518Z,1.52
2022-08-04T07:51:17.383Z,1.65
2022-08-04T07:53:54.318Z,1.73
2022-08-04T07:56:23.605Z,1.45
2022-08-04T07:58:50.697Z,1.42
2022-08-04T08:01:19.458Z,1.83
2022-08-04T08:03:47.595Z,2.13
2022-08-04T08:06:30.447Z,1.65
2022-08-04T08:09:13.150Z,1.52
2022-08-04T08:12:36.224Z,1.45
2022-08-04T08:14:35.037Z,1.33
2022-08-04T08:17:02.785Z,1.35
2022-08-04T08:19:30.935Z,1.60
2022-08-04T08:22:00.608Z,1.27
2022-08-04T08:24:35.371Z,1.58
2022-08-04T08:27:04.549Z,1.42
2022-08-04T08:29:33.958Z,1.58
2022-08-04T08:32:07.785Z,1.23
2022-08-04T08:34:36.075Z,1.30
2022-08-04T08:37:21.965Z,1.45
2022-08-04T08:39:49.333Z,1.30
2022-08-04T08:42:19.340Z,1.50
2022-08-04T08:45:05.607Z,1.23
2022-08-04T08:53:00.823Z,1.50
2022-08-04T08:55:37.905Z,1.33
2022-08-04T08:58:24.495Z,1.23
2022-08-04T09:01:03.667Z,1.48
2022-08-04T09:03:49.798Z,1.23
2022-08-04T09:08:50.323Z,1.15
2022-08-04T09:11:19.651Z,1.30
2022-08-04T09:13:46.952Z,1.10
2022-08-04T09:16:20.524Z,1.30
2022-08-04T09:18:53.898Z,1.10
2022-08-04T09:21:26.630Z,1.20
2022-08-04T09:24:35.840Z,1.00
2022-08-04T09:27:04.212Z,1.13
2022-08-04T09:29:37.660Z,1.13
2022-08-04T09:32:23.846Z,1.10
2022-08-04T09:35:04.353Z,1.08
2022-08-04T09:37:48.514Z,0.60
2022-08-04T09:40:31.858Z,0.70
2022-08-04T09:43:28.041Z,1.10
2022-08-04T09:46:16.627Z,1.02
2022-08-04T09:49:07.564Z,1.30
2022-08-04T09:51:57.764Z,1.20
2022-08-04T09:54:53.392Z,1.08
2022-08-04T09:57:29.918Z,1.27
2022-08-04T10:00:08.677Z,1.05
2022-08-04T10:02:44.900Z,1.20
2022-08-04T10:05:17.061Z,1.27
2022-08-04T10:08:16.422Z,1.83
2022-08-04T10:11:02.778Z,1.20
2022-08-04T10:16:21.346Z,1.45
2022-08-04T10:18:54.724Z,1.20
2022-08-04T10:21:32.396Z,1.10
2022-08-04T10:24:29.941Z,0.77
2022-08-04T10:26:58.235Z,0.93
2022-08-04T10:29:36.436Z,0.93
2022-08-04T10:32:14.484Z,1.20
2022-08-04T10:34:53.634Z,0.82
2022-08-04T10:37:59.464Z,0.80
2022-08-04T10:40:33.495Z,0.80
2022-08-04T10:43:07.006Z,0.80
2022-08-04T10:46:02.145Z,0.57
2022-08-04T10:48:45.868Z,0.80
2022-08-04T10:51:20.475Z,0.93
2022-08-04T10:53:53.970Z,0.90
2022-08-04T10:56:30.122Z,0.73
2022-08-04T10:59:17.896Z,0.85
2022-08-04T11:01:59.449Z,0.80
2022-08-04T11:04:30.673Z,0.80
2022-08-04T11:06:59.468Z,0.88
2022-08-04T11:09:27.664Z,1.15
2022-08-04T11:12:02.345Z,0.80
2022-08-04T11:14:52.509Z,1.02
2022-08-04T11:17:33.554Z,0.80
2022-08-04T11:20:34.621Z,1.13
2022-08-04T11:23:17.314Z,0.85
2022-08-04T11:25:53.667Z,0.90
2022-08-04T11:29:03.866Z,1.00
2022-08-04T11:31:32.904Z,0.90
2022-08-04T11:34:23.530Z,0.73
2022-08-04T11:37:03.676Z,0.68
2022-08-04T11:39:30.979Z,1.00
2022-08-04T11:42:19.935Z,1.00
2022-08-04T11:44:51.334Z,0.60
2022-08-04T11:47:34.084Z,0.80
2022-08-04T11:50:06.710Z,0.70
2022-08-04T11:52:35.472Z,0.75
2022-08-04T11:55:04.810Z,0.63
2022-08-04T11:57:36.156Z,0.60
2022-08-04T12:00:07.497Z,0.60
2022-08-04T12:02:59.832Z,0.40
2022-08-04T12:05:36.824Z,0.70
2022-08-04T12:08:36.187Z,0.75
2022-08-04T12:11:22.825Z,0.57
2022-08-04T12:14:00.209Z,0.70
2022-08-04T12:16:30.882Z,0.88
2022-08-04T12:19:01.000Z,0.75
2022-08-04T12:21:36.572Z,0.60
2022-08-04T12:24:14.801Z,0.63
2022-08-04T12:26:50.203Z,0.50
2022-08-04T12:31:56.070Z,0.57
2022-08-04T12:34:31.216Z,0.52
2022-08-04T12:37:01.487Z,0.65
2022-08-04T12:39:30.605Z,0.50
2022-08-04T12:42:07.173Z,0.70
2022-08-04T12:44:41.889Z,0.40
2022-08-04T12:47:28.302Z,0.70
2022-08-04T12:50:00.733Z,0.65
2022-08-04T12:52:51.829Z,0.70
2022-08-04T12:55:17.620Z,0.40
2022-08-04T12:57:46.091Z,0.30
2022-08-04T13:00:31.137Z,0.60
2022-08-04T13:03:10.064Z,0.50
2022-08-04T13:05:40.665Z,0.55
2022-08-04T13:08:08.972Z,0.68
2022-08-04T13:10:41.463Z,0.73
2022-08-04T13:13:13.073Z,0.60
2022-08-04T13:15:47.548Z,0.52
2022-08-04T13:18:28.917Z,0.50
2022-08-04T13:20:57.966Z,0.75
2022-08-04T13:23:26.812Z,0.60
2022-08-04T13:26:44.054Z,0.77
2022-08-04T13:28:48.764Z,0.52
2022-08-04T13:31:20.808Z,0.55
2022-08-04T13:34:05.223Z,0.60
2022-08-04T13:39:04.544Z,0.70
2022-08-04T13:41:32.064Z,0.60
2022-08-04T13:44:19.684Z,0.50
2022-08-04T13:46:51.810Z,0.55
2022-08-04T13:49:42.550Z,0.70
2022-08-04T13:52:10.665Z,0.70
2022-08-04T13:54:43.460Z,0.80
2022-08-04T13:57:13.595Z,0.40
2022-08-04T13:59:44.135Z,0.50
2022-08-04T14:02:17.421Z,0.50
2022-08-04T14:04:50.616Z,0.52
2022-08-04T14:07:21.370Z,0.57
2022-08-04T14:10:04.013Z,0.60
2022-08-04T14:12:46.044Z,0.60
2022-08-04T14:16:01.175Z,0.70
2022-08-04T14:18:32.668Z,0.73
2022-08-04T14:21:15.981Z,0.70
2022-08-04T14:23:47.711Z,0.52
2022-08-04T14:26:16.220Z,0.63
2022-08-04T14:29:08.470Z,0.80
2022-08-04T14:31:31.250Z,0.63
2022-08-04T14:34:04.561Z,0.70
2022-08-04T14:37:13.284Z,0.90
2022-08-04T14:39:41.191Z,0.52
2022-08-04T14:42:09.058Z,0.70
2022-08-04T14:44:53.439Z,0.63
2022-08-04T14:47:29.063Z,0.70
2022-08-04T14:49:56.319Z,0.90
2022-08-04T14:52:25.208Z,0.70
2022-08-04T14:54:52.541Z,0.65
2022-08-04T14:57:19.787Z,0.60
2022-08-04T15:00:00.784Z,0.43
2022-08-04T15:02:30.510Z,0.70
2022-08-04T15:04:58.305Z,0.70
2022-08-04T15:07:25.630Z,0.47
2022-08-04T15:09:53.078Z,0.77
2022-08-04T15:12:21.092Z,0.60
2022-08-04T15:14:48.166Z,0.90
2022-08-04T15:17:29.296Z,0.63
2022-08-04T15:19:57.998Z,0.68
2022-08-04T15:22:25.445Z,0.52
2022-08-04T15:24:55.488Z,0.77
2022-08-04T15:27:25.191Z,0.90
2022-08-04T15:29:58.990Z,0.70
2022-08-04T15:32:28.470Z,0.70
2022-08-04T15:35:08.500Z,0.60
2022-08-04T15:37:38.792Z,0.70
2022-08-04T15:40:12.253Z,0.50
2022-08-04T15:43:02.005Z,0.60
2022-08-04T15:46:34.922Z,0.50
2022-08-04T15:48:43.444Z,0.52
2022-08-04T15:51:15.274Z,0.70
2022-08-04T15:54:03.563Z,0.67
2022-08-04T15:56:31.484Z,0.85
2022-08-04T15:58:59.056Z,0.70
2022-08-04T16:01:27.628Z,0.70
2022-08-04T16:03:59.458Z,0.60
2022-08-04T16:06:29.774Z,0.63
2022-08-04T16:09:04.593Z,0.60
2022-08-04T16:11:40.056Z,1.02
2022-08-04T16:14:10.705Z,0.55
2022-08-04T16:16:45.123Z,0.75
2022-08-04T16:19:18.299Z,0.43
2022-08-04T16:21:55.410Z,0.60
2022-08-04T16:24:38.961Z,0.50
2022-08-04T16:27:11.309Z,0.60
2022-08-04T16:29:42.580Z,0.60
2022-08-04T16:32:14.064Z,0.73
2022-08-04T16:34:53.788Z,0.50
2022-08-04T16:37:22.859Z,0.50
2022-08-04T16:39:51.881Z,0.52
2022-08-04T16:42:28.873Z,0.55
2022-08-04T16:45:08.269Z,0.50
2022-08-04T16:47:47.305Z,0.50
2022-08-04T16:50:21.830Z,0.50
2022-08-04T16:52:49.898Z,0.60
2022-08-04T16:55:18.788Z,0.57
2022-08-04T16:57:50.268Z,0.70
2022-08-04T17:00:18.043Z,0.50
2022-08-04T17:02:46.079Z,0.50
2022-08-04T17:05:39.348Z,0.60
2022-08-04T17:08:29.246Z,0.60
2022-08-04T17:10:55.581Z,0.60
2022-08-04T17:14:02.150Z,0.70
2022-08-04T17:16:33.816Z,0.60
2022-08-04T17:19:01.943Z,0.50
2022-08-04T17:21:31.088Z,0.60
2022-08-04T17:23:59.223Z,0.50
2022-08-04T17:26:51.555Z,0.65
2022-08-04T17:29:43.578Z,0.70
2022-08-04T17:32:15.962Z,0.55
2022-08-04T17:34:53.708Z,0.73
2022-08-04T17:37:39.154Z,0.60
2022-08-04T17:40:12.945Z,0.50
2022-08-04T17:42:41.793Z,0.40
2022-08-04T17:50:47.841Z,0.65
2022-08-04T17:53:16.981Z,0.60
2022-08-04T17:55:49.414Z,0.73
2022-08-04T17:58:22.309Z,0.80
2022-08-04T18:01:22.733Z,0.70
2022-08-04T18:03:51.844Z,0.88
2022-08-04T18:06:21.085Z,0.50
2022-08-04T18:08:59.402Z,0.60
2022-08-04T18:11:51.919Z,0.60
2022-08-04T18:14:19.145Z,0.70
2022-08-04T18:16:56.213Z,0.70
2022-08-04T18:19:23.786Z,0.60
2022-08-04T18:21:59.509Z,0.80
2022-08-04T18:24:34.189Z,0.73
2022-08-04T18:27:20.511Z,0.70
2022-08-04T18:30:14.860Z,0.50
2022-08-04T18:32:35.688Z,0.73
2022-08-04T18:35:05.370Z,0.63
2022-08-04T18:38:05.532Z,0.57
2022-08-04T18:40:31.121Z,0.80
2022-08-04T18:43:03.652Z,0.90
2022-08-04T18:45:34.377Z,0.90
2022-08-04T18:48:04.277Z,0.77
2022-08-04T18:51:09.072Z,0.73
2022-08-04T18:53:35.773Z,0.50
2022-08-04T18:56:04.197Z,0.75
2022-08-04T18:58:33.901Z,0.50
2022-08-04T19:01:01.404Z,0.60
2022-08-04T19:03:30.745Z,0.60
2022-08-04T19:06:01.878Z,0.82
2022-08-04T19:08:34.832Z,0.68
2022-08-04T19:11:54.502Z,0.77
2022-08-04T19:13:57.982Z,0.70
2022-08-04T19:16:29.833Z,1.00
2022-08-04T19:18:57.568Z,1.10
2022-08-04T19:21:59.615Z,1.20
2022-08-04T19:24:31.180Z,0.85
2022-08-04T19:27:02.396Z,0.60
2022-08-04T19:29:38.071Z,0.98
2022-08-04T19:32:14.388Z,0.90
2022-08-04T19:34:46.463Z,0.80
2022-08-04T19:37:58.203Z,0.63
2022-08-04T19:40:06.709Z,0.93
2022-08-04T19:42:34.755Z,0.95
2022-08-04T19:45:02.494Z,0.60
2022-08-04T19:48:18.063Z,0.80
2022-08-04T19:50:16.587Z,1.00
2022-08-04T19:52:51.776Z,1.05
2022-08-04T19:58:10.913Z,1.00
2022-08-04T20:00:40.809Z,1.02
2022-08-04T20:03:20.272Z,0.88
2022-08-04T20:05:53.405Z,0.90
2022-08-04T20:08:23.724Z,0.88
2022-08-04T20:10:52.178Z,1.10
2022-08-04T20:13:20.844Z,0.70
2022-08-04T20:18:55.409Z,1.00
2022-08-04T20:24:38.798Z,1.05
2022-08-04T20:26:57.332Z,0.90
2022-08-04T20:29:40.539Z,1.00
2022-08-04T20:32:10.442Z,1.00
2022-08-04T20:34:40.129Z,0.88
2022-08-04T20:37:10.247Z,0.90
2022-08-04T20:39:38.237Z,1.33
2022-08-04T20:42:05.670Z,1.20
2022-08-04T20:44:33.987Z,1.15
2022-08-04T20:47:01.514Z,0.93
2022-08-04T20:49:35.209Z,0.70
2022-08-04T20:52:13.259Z,1.55
2022-08-04T20:54:41.275Z,0.73
2022-08-04T20:57:08.946Z,1.00
2022-08-04T20:59:37.206Z,0.88
2022-08-04T21:02:07.958Z,1.00
2022-08-04T21:04:46.320Z,1.10
2022-08-04T21:07:20.480Z,1.02
2022-08-04T21:09:50.141Z,1.08
2022-08-04T21:12:27.540Z,0.80
2022-08-04T21:14:57.138Z,0.82
2022-08-04T21:17:56.531Z,0.80
2022-08-04T21:23:01.910Z,1.10
2022-08-04T21:25:29.743Z,0.80
2022-08-04T21:27:59.095Z,0.90
2022-08-04T21:30:36.920Z,0.80
2022-08-04T21:33:18.621Z,1.17
2022-08-04T21:35:47.104Z,1.13
2022-08-04T21:38:17.592Z,1.00
2022-08-04T21:40:55.877Z,1.20
2022-08-04T21:43:27.402Z,0.85
2022-08-04T21:45:55.759Z,0.93
2022-08-04T21:54:06.060Z,1.13
2022-08-04T21:56:33.714Z,1.00
2022-08-04T21:59:03.427Z,0.90
2022-08-04T22:01:52.167Z,0.90
2022-08-04T22:04:20.823Z,0.75
2022-08-04T22:06:52.036Z,0.88
2022-08-04T22:09:21.567Z,1.50
2022-08-04T22:11:51.102Z,0.90
2022-08-04T22:14:27.255Z,1.00
2022-08-04T22:16:56.595Z,1.23
2022-08-04T22:19:27.416Z,0.80
2022-08-04T22:22:09.622Z,1.10
2022-08-04T22:24:41.056Z,0.93
2022-08-04T22:27:11.784Z,0.98
2022-08-04T22:29:39.335Z,0.85
2022-08-04T22:32:06.931Z,0.90
2022-08-04T22:34:45.411Z,0.95
2022-08-04T22:37:12.814Z,0.93
2022-08-04T22:39:56.258Z,1.15
2022-08-04T22:42:24.399Z,1.08
2022-08-04T22:44:52.688Z,0.98
2022-08-04T22:47:20.623Z,0.90
2022-08-04T22:49:56.592Z,0.90
2022-08-04T22:52:55.907Z,1.15
2022-08-04T22:55:23.590Z,0.70
2022-08-04T22:58:04.848Z,0.77
2022-08-04T23:00:36.435Z,1.13
2022-08-04T23:03:11.121Z,0.90
2022-08-04T23:05:54.580Z,0.85
2022-08-04T23:08:21.834Z,0.77
2022-08-04T23:10:55.727Z,0.90
2022-08-04T23:13:22.974Z,0.90
2022-08-04T23:15:50.524Z,1.08
2022-08-04T23:18:20.419Z,1.17
2022-08-04T23:20:47.658Z,1.23
2022-08-04T23:23:19.610Z,0.98
2022-08-04T23:26:08.197Z,0.93
2022-08-04T23:28:34.057Z,0.80
2022-08-04T23:31:02.268Z,0.80
2022-08-04T23:33:51.148Z,1.10
2022-08-04T23:36:17.743Z,0.65
2022-08-04T23:38:44.958Z,1.02
2022-08-04T23:41:15.118Z,1.05
2022-08-04T23:43:55.048Z,1.05
2022-08-04T23:46:23.141Z,0.98
2022-08-04T23:48:52.012Z,1.20
2022-08-04T23:51:19.205Z,1.10
2022-08-04T23:54:03.802Z,0.93
2022-08-04T23:56:32.152Z,1.30
2022-08-04T23:59:00.285Z,1.10
